sensor_id;sensor_type;location;lat;lon;timestamp;P1;durP1;ratioP1;P2;durP2;ratioP2
28844;SDS011;15976;47.938;7.758;2023-03-04T00:02:24;147.25;;;56.60;;
28844;SDS011;15976;47.938;7.758;2023-03-04T00:04:51;72.82;;;35.83;;
28844;SDS011;15976;47.938;7.758;2023-03-04T00:07:18;85.68;;;39.50;;
28844;SDS011;15976;47.938;7.758;2023-03-04T00:09:45;85.90;;;36.72;;
28844;SDS011;15976;47.938;7.758;2023-03-04T00:12:12;82.30;;;37.30;;
28844;SDS011;15976;47.938;7.758;2023-03-04T00:14:39;91.65;;;40.97;;
28844;SDS011;15976;47.938;7.758;2023-03-04T00:17:07;75.57;;;36.17;;
28844;SDS011;15976;47.938;7.758;2023-03-04T00:19:34;83.68;;;36.50;;
28844;SDS011;15976;47.938;7.758;2023-03-04T00:22:02;86.70;;;37.63;;
28844;SDS011;15976;47.938;7.758;2023-03-04T00:24:30;79.57;;;37.78;;
28844;SDS011;15976;47.938;7.758;2023-03-04T00:26:57;75.70;;;35.67;;
28844;SDS011;15976;47.938;7.758;2023-03-04T00:29:24;75.93;;;35.38;;
28844;SDS011;15976;47.938;7.758;2023-03-04T00:31:51;75.18;;;35.22;;
28844;SDS011;15976;47.938;7.758;2023-03-04T00:34:19;77.72;;;35.92;;
28844;SDS011;15976;47.938;7.758;2023-03-04T00:36:46;83.32;;;36.22;;
28844;SDS011;15976;47.938;7.758;2023-03-04T00:39:13;81.32;;;37.30;;
28844;SDS011;15976;47.938;7.758;2023-03-04T00:41:41;78.07;;;35.85;;
28844;SDS011;15976;47.938;7.758;2023-03-04T00:44:08;73.53;;;35.20;;
28844;SDS011;15976;47.938;7.758;2023-03-04T00:46:35;81.57;;;36.00;;
28844;SDS011;15976;47.938;7.758;2023-03-04T00:49:02;83.95;;;37.22;;
28844;SDS011;15976;47.938;7.758;2023-03-04T00:51:29;75.55;;;34.15;;
28844;SDS011;15976;47.938;7.758;2023-03-04T00:53:56;74.13;;;32.17;;
28844;SDS011;15976;47.938;7.758;2023-03-04T00:56:26;77.35;;;35.53;;
28844;SDS011;15976;47.938;7.758;2023-03-04T00:58:53;69.57;;;33.28;;
28844;SDS011;15976;47.938;7.758;2023-03-04T01:01:20;74.03;;;34.20;;
28844;SDS011;15976;47.938;7.758;2023-03-04T01:03:47;70.22;;;33.67;;
28844;SDS011;15976;47.938;7.758;2023-03-04T01:06:14;74.32;;;32.70;;
28844;SDS011;15976;47.938;7.758;2023-03-04T01:08:41;70.70;;;33.35;;
28844;SDS011;15976;47.938;7.758;2023-03-04T01:11:08;71.20;;;31.27;;
28844;SDS011;15976;47.938;7.758;2023-03-04T01:13:35;69.50;;;32.28;;
28844;SDS011;15976;47.938;7.758;2023-03-04T01:16:02;73.35;;;34.10;;
28844;SDS011;15976;47.938;7.758;2023-03-04T01:18:30;71.15;;;33.63;;
28844;SDS011;15976;47.938;7.758;2023-03-04T01:20:57;74.65;;;34.10;;
28844;SDS011;15976;47.938;7.758;2023-03-04T01:23:24;75.60;;;35.03;;
28844;SDS011;15976;47.938;7.758;2023-03-04T01:25:51;74.65;;;36.17;;
28844;SDS011;15976;47.938;7.758;2023-03-04T01:28:18;78.28;;;36.10;;
28844;SDS011;15976;47.938;7.758;2023-03-04T01:30:46;78.13;;;37.58;;
28844;SDS011;15976;47.938;7.758;2023-03-04T01:33:13;76.90;;;33.92;;
28844;SDS011;15976;47.938;7.758;2023-03-04T01:35:40;67.90;;;33.38;;
28844;SDS011;15976;47.938;7.758;2023-03-04T01:38:07;74.80;;;35.03;;
28844;SDS011;15976;47.938;7.758;2023-03-04T01:40:34;78.20;;;35.75;;
28844;SDS011;15976;47.938;7.758;2023-03-04T01:43:03;74.55;;;34.63;;
28844;SDS011;15976;47.938;7.758;2023-03-04T01:45:30;73.50;;;33.88;;
28844;SDS011;15976;47.938;7.758;2023-03-04T01:48:01;72.57;;;34.05;;
28844;SDS011;15976;47.938;7.758;2023-03-04T01:50:32;79.30;;;34.78;;
28844;SDS011;15976;47.938;7.758;2023-03-04T01:53:00;69.15;;;31.83;;
28844;SDS011;15976;47.938;7.758;2023-03-04T01:55:28;71.03;;;33.58;;
28844;SDS011;15976;47.938;7.758;2023-03-04T01:57:55;72.38;;;33.67;;
28844;SDS011;15976;47.938;7.758;2023-03-04T02:00:24;74.35;;;34.25;;
28844;SDS011;15976;47.938;7.758;2023-03-04T02:05:24;70.78;;;33.88;;
28844;SDS011;15976;47.938;7.758;2023-03-04T02:07:52;76.70;;;34.00;;
28844;SDS011;15976;47.938;7.758;2023-03-04T02:10:22;71.25;;;32.83;;
28844;SDS011;15976;47.938;7.758;2023-03-04T02:12:50;73.80;;;33.88;;
28844;SDS011;15976;47.938;7.758;2023-03-04T02:15:17;71.07;;;33.10;;
28844;SDS011;15976;47.938;7.758;2023-03-04T02:17:45;74.13;;;33.47;;
28844;SDS011;15976;47.938;7.758;2023-03-04T02:20:16;74.40;;;33.50;;
28844;SDS011;15976;47.938;7.758;2023-03-04T02:23:15;68.65;;;33.83;;
28844;SDS011;15976;47.938;7.758;2023-03-04T02:28:56;69.55;;;31.90;;
28844;SDS011;15976;47.938;7.758;2023-03-04T02:31:38;70.75;;;31.45;;
28844;SDS011;15976;47.938;7.758;2023-03-04T02:34:11;66.68;;;31.35;;
28844;SDS011;15976;47.938;7.758;2023-03-04T02:36:41;68.03;;;30.63;;
28844;SDS011;15976;47.938;7.758;2023-03-04T02:39:20;68.20;;;32.72;;
28844;SDS011;15976;47.938;7.758;2023-03-04T02:41:52;61.92;;;28.48;;
28844;SDS011;15976;47.938;7.758;2023-03-04T02:44:22;62.10;;;28.65;;
28844;SDS011;15976;47.938;7.758;2023-03-04T02:46:55;54.20;;;25.63;;
28844;SDS011;15976;47.938;7.758;2023-03-04T02:49:24;63.83;;;26.63;;
28844;SDS011;15976;47.938;7.758;2023-03-04T02:51:58;59.70;;;26.27;;
28844;SDS011;15976;47.938;7.758;2023-03-04T02:54:26;62.13;;;27.08;;
28844;SDS011;15976;47.938;7.758;2023-03-04T02:56:55;53.92;;;25.77;;
28844;SDS011;15976;47.938;7.758;2023-03-04T02:59:24;57.28;;;24.77;;
28844;SDS011;15976;47.938;7.758;2023-03-04T03:01:51;53.45;;;23.10;;
28844;SDS011;15976;47.938;7.758;2023-03-04T03:04:19;51.05;;;24.52;;
28844;SDS011;15976;47.938;7.758;2023-03-04T03:06:50;56.30;;;24.17;;
28844;SDS011;15976;47.938;7.758;2023-03-04T03:09:17;62.70;;;27.95;;
28844;SDS011;15976;47.938;7.758;2023-03-04T03:11:45;55.38;;;26.42;;
28844;SDS011;15976;47.938;7.758;2023-03-04T03:14:13;55.03;;;25.10;;
28844;SDS011;15976;47.938;7.758;2023-03-04T03:16:40;58.88;;;25.85;;
28844;SDS011;15976;47.938;7.758;2023-03-04T03:19:07;52.03;;;23.13;;
28844;SDS011;15976;47.938;7.758;2023-03-04T03:21:35;53.17;;;25.13;;
28844;SDS011;15976;47.938;7.758;2023-03-04T03:24:02;52.78;;;23.88;;
28844;SDS011;15976;47.938;7.758;2023-03-04T03:26:29;58.13;;;25.33;;
28844;SDS011;15976;47.938;7.758;2023-03-04T03:28:56;53.03;;;23.15;;
28844;SDS011;15976;47.938;7.758;2023-03-04T03:31:23;46.65;;;22.48;;
28844;SDS011;15976;47.938;7.758;2023-03-04T03:33:50;52.28;;;23.75;;
28844;SDS011;15976;47.938;7.758;2023-03-04T03:36:17;54.47;;;25.27;;
28844;SDS011;15976;47.938;7.758;2023-03-04T03:38:44;55.47;;;23.80;;
28844;SDS011;15976;47.938;7.758;2023-03-04T03:41:11;50.05;;;23.55;;
28844;SDS011;15976;47.938;7.758;2023-03-04T03:43:38;53.45;;;23.73;;
28844;SDS011;15976;47.938;7.758;2023-03-04T03:46:05;51.85;;;23.48;;
28844;SDS011;15976;47.938;7.758;2023-03-04T03:48:32;55.75;;;24.65;;
28844;SDS011;15976;47.938;7.758;2023-03-04T03:50:59;48.63;;;23.60;;
28844;SDS011;15976;47.938;7.758;2023-03-04T03:53:27;51.53;;;23.98;;
28844;SDS011;15976;47.938;7.758;2023-03-04T03:55:54;46.88;;;22.55;;
28844;SDS011;15976;47.938;7.758;2023-03-04T03:58:21;52.00;;;23.60;;
28844;SDS011;15976;47.938;7.758;2023-03-04T04:00:48;45.63;;;22.20;;
28844;SDS011;15976;47.938;7.758;2023-03-04T04:03:15;47.72;;;22.80;;
28844;SDS011;15976;47.938;7.758;2023-03-04T04:05:43;53.20;;;22.80;;
28844;SDS011;15976;47.938;7.758;2023-03-04T04:08:11;49.20;;;22.90;;
28844;SDS011;15976;47.938;7.758;2023-03-04T04:10:39;49.72;;;23.08;;
28844;SDS011;15976;47.938;7.758;2023-03-04T04:13:07;44.75;;;21.73;;
28844;SDS011;15976;47.938;7.758;2023-03-04T04:15:35;48.63;;;22.42;;
28844;SDS011;15976;47.938;7.758;2023-03-04T04:18:04;46.30;;;22.42;;
28844;SDS011;15976;47.938;7.758;2023-03-04T04:20:32;54.97;;;24.60;;
28844;SDS011;15976;47.938;7.758;2023-03-04T04:22:59;51.28;;;24.65;;
28844;SDS011;15976;47.938;7.758;2023-03-04T04:25:27;53.45;;;23.23;;
28844;SDS011;15976;47.938;7.758;2023-03-04T04:27:54;44.45;;;22.40;;
28844;SDS011;15976;47.938;7.758;2023-03-04T04:30:21;48.22;;;23.05;;
28844;SDS011;15976;47.938;7.758;2023-03-04T04:32:48;53.30;;;24.05;;
28844;SDS011;15976;47.938;7.758;2023-03-04T04:35:15;49.65;;;23.13;;
28844;SDS011;15976;47.938;7.758;2023-03-04T04:37:42;55.50;;;22.35;;
28844;SDS011;15976;47.938;7.758;2023-03-04T04:40:09;50.25;;;23.80;;
28844;SDS011;15976;47.938;7.758;2023-03-04T04:42:37;51.72;;;23.27;;
28844;SDS011;15976;47.938;7.758;2023-03-04T04:45:04;47.58;;;23.02;;
28844;SDS011;15976;47.938;7.758;2023-03-04T04:47:31;52.08;;;23.70;;
28844;SDS011;15976;47.938;7.758;2023-03-04T04:49:58;54.00;;;24.67;;
28844;SDS011;15976;47.938;7.758;2023-03-04T04:52:25;51.05;;;23.30;;
28844;SDS011;15976;47.938;7.758;2023-03-04T04:54:52;49.90;;;23.38;;
28844;SDS011;15976;47.938;7.758;2023-03-04T04:57:19;50.00;;;23.80;;
28844;SDS011;15976;47.938;7.758;2023-03-04T04:59:46;47.13;;;21.73;;
28844;SDS011;15976;47.938;7.758;2023-03-04T05:02:13;47.38;;;22.73;;
28844;SDS011;15976;47.938;7.758;2023-03-04T05:04:41;47.95;;;22.60;;
28844;SDS011;15976;47.938;7.758;2023-03-04T05:07:07;51.55;;;23.10;;
28844;SDS011;15976;47.938;7.758;2023-03-04T05:09:34;49.22;;;23.38;;
28844;SDS011;15976;47.938;7.758;2023-03-04T05:12:01;47.75;;;22.48;;
28844;SDS011;15976;47.938;7.758;2023-03-04T05:14:28;48.17;;;23.27;;
28844;SDS011;15976;47.938;7.758;2023-03-04T05:16:55;58.40;;;23.98;;
28844;SDS011;15976;47.938;7.758;2023-03-04T05:19:22;47.05;;;23.75;;
28844;SDS011;15976;47.938;7.758;2023-03-04T05:21:49;52.65;;;24.65;;
28844;SDS011;15976;47.938;7.758;2023-03-04T05:24:16;49.50;;;23.73;;
28844;SDS011;15976;47.938;7.758;2023-03-04T05:26:44;48.17;;;23.75;;
28844;SDS011;15976;47.938;7.758;2023-03-04T05:29:11;52.88;;;23.25;;
28844;SDS011;15976;47.938;7.758;2023-03-04T05:31:38;50.70;;;24.10;;
28844;SDS011;15976;47.938;7.758;2023-03-04T05:34:05;47.72;;;22.52;;
28844;SDS011;15976;47.938;7.758;2023-03-04T05:36:33;48.55;;;22.30;;
28844;SDS011;15976;47.938;7.758;2023-03-04T05:39:00;53.88;;;23.13;;
28844;SDS011;15976;47.938;7.758;2023-03-04T05:41:27;50.80;;;23.35;;
28844;SDS011;15976;47.938;7.758;2023-03-04T05:43:54;51.28;;;25.40;;
28844;SDS011;15976;47.938;7.758;2023-03-04T05:46:21;48.80;;;24.00;;
28844;SDS011;15976;47.938;7.758;2023-03-04T05:48:51;51.88;;;23.70;;
28844;SDS011;15976;47.938;7.758;2023-03-04T05:51:19;53.30;;;24.95;;
28844;SDS011;15976;47.938;7.758;2023-03-04T05:53:50;49.00;;;23.92;;
28844;SDS011;15976;47.938;7.758;2023-03-04T05:56:18;55.10;;;25.02;;
28844;SDS011;15976;47.938;7.758;2023-03-04T05:58:45;51.13;;;23.33;;
28844;SDS011;15976;47.938;7.758;2023-03-04T06:01:13;53.72;;;23.48;;
28844;SDS011;15976;47.938;7.758;2023-03-04T06:03:40;54.72;;;23.70;;
28844;SDS011;15976;47.938;7.758;2023-03-04T06:06:08;50.55;;;24.30;;
28844;SDS011;15976;47.938;7.758;2023-03-04T06:08:35;50.72;;;23.67;;
28844;SDS011;15976;47.938;7.758;2023-03-04T06:11:02;50.42;;;23.77;;
28844;SDS011;15976;47.938;7.758;2023-03-04T06:13:32;50.65;;;23.90;;
28844;SDS011;15976;47.938;7.758;2023-03-04T06:16:00;50.35;;;24.50;;
28844;SDS011;15976;47.938;7.758;2023-03-04T06:18:27;54.70;;;24.23;;
28844;SDS011;15976;47.938;7.758;2023-03-04T06:20:58;50.50;;;24.50;;
28844;SDS011;15976;47.938;7.758;2023-03-04T06:23:27;55.92;;;26.00;;
28844;SDS011;15976;47.938;7.758;2023-03-04T06:25:55;50.63;;;25.63;;
28844;SDS011;15976;47.938;7.758;2023-03-04T06:28:23;57.80;;;25.65;;
28844;SDS011;15976;47.938;7.758;2023-03-04T06:30:51;51.63;;;24.58;;
28844;SDS011;15976;47.938;7.758;2023-03-04T06:33:19;54.22;;;24.58;;
28844;SDS011;15976;47.938;7.758;2023-03-04T06:35:46;54.63;;;26.60;;
28844;SDS011;15976;47.938;7.758;2023-03-04T06:38:13;55.88;;;26.58;;
28844;SDS011;15976;47.938;7.758;2023-03-04T06:40:40;50.63;;;24.77;;
28844;SDS011;15976;47.938;7.758;2023-03-04T06:43:08;49.90;;;24.63;;
28844;SDS011;15976;47.938;7.758;2023-03-04T06:45:35;55.58;;;25.42;;
28844;SDS011;15976;47.938;7.758;2023-03-04T06:48:04;53.25;;;25.77;;
28844;SDS011;15976;47.938;7.758;2023-03-04T06:50:31;52.65;;;25.90;;
28844;SDS011;15976;47.938;7.758;2023-03-04T06:52:58;50.80;;;23.83;;
28844;SDS011;15976;47.938;7.758;2023-03-04T06:55:25;53.45;;;24.73;;
28844;SDS011;15976;47.938;7.758;2023-03-04T06:57:52;52.78;;;24.63;;
28844;SDS011;15976;47.938;7.758;2023-03-04T07:00:19;61.83;;;28.33;;
28844;SDS011;15976;47.938;7.758;2023-03-04T07:02:49;55.40;;;25.88;;
28844;SDS011;15976;47.938;7.758;2023-03-04T07:05:19;63.10;;;29.95;;
28844;SDS011;15976;47.938;7.758;2023-03-04T07:07:46;62.17;;;28.50;;
28844;SDS011;15976;47.938;7.758;2023-03-04T07:10:13;54.83;;;26.75;;
28844;SDS011;15976;47.938;7.758;2023-03-04T07:12:40;52.50;;;25.15;;
28844;SDS011;15976;47.938;7.758;2023-03-04T07:15:07;57.60;;;26.50;;
28844;SDS011;15976;47.938;7.758;2023-03-04T07:17:35;55.88;;;25.30;;
28844;SDS011;15976;47.938;7.758;2023-03-04T07:20:02;54.47;;;25.45;;
28844;SDS011;15976;47.938;7.758;2023-03-04T07:22:29;69.72;;;31.70;;
28844;SDS011;15976;47.938;7.758;2023-03-04T07:24:56;71.35;;;30.75;;
28844;SDS011;15976;47.938;7.758;2023-03-04T07:27:23;83.72;;;34.00;;
28844;SDS011;15976;47.938;7.758;2023-03-04T07:29:50;73.97;;;34.05;;
28844;SDS011;15976;47.938;7.758;2023-03-04T07:32:17;70.20;;;33.00;;
28844;SDS011;15976;47.938;7.758;2023-03-04T07:34:45;69.57;;;31.42;;
28844;SDS011;15976;47.938;7.758;2023-03-04T07:37:11;69.70;;;30.60;;
28844;SDS011;15976;47.938;7.758;2023-03-04T07:39:38;62.03;;;29.10;;
28844;SDS011;15976;47.938;7.758;2023-03-04T07:42:05;59.47;;;28.52;;
28844;SDS011;15976;47.938;7.758;2023-03-04T07:44:37;63.83;;;29.57;;
28844;SDS011;15976;47.938;7.758;2023-03-04T07:47:04;63.45;;;28.27;;
28844;SDS011;15976;47.938;7.758;2023-03-04T07:49:31;57.17;;;24.95;;
28844;SDS011;15976;47.938;7.758;2023-03-04T07:52:01;57.53;;;24.48;;
28844;SDS011;15976;47.938;7.758;2023-03-04T07:54:29;52.22;;;24.00;;
28844;SDS011;15976;47.938;7.758;2023-03-04T07:56:56;55.88;;;24.17;;
28844;SDS011;15976;47.938;7.758;2023-03-04T07:59:23;60.42;;;24.50;;
28844;SDS011;15976;47.938;7.758;2023-03-04T08:01:50;57.92;;;26.17;;
28844;SDS011;15976;47.938;7.758;2023-03-04T08:04:17;58.45;;;26.52;;
28844;SDS011;15976;47.938;7.758;2023-03-04T08:06:44;61.35;;;25.50;;
28844;SDS011;15976;47.938;7.758;2023-03-04T08:09:11;57.63;;;24.85;;
28844;SDS011;15976;47.938;7.758;2023-03-04T08:11:39;59.55;;;25.77;;
28844;SDS011;15976;47.938;7.758;2023-03-04T08:14:06;58.60;;;24.77;;
28844;SDS011;15976;47.938;7.758;2023-03-04T08:16:34;69.40;;;27.30;;
28844;SDS011;15976;47.938;7.758;2023-03-04T08:19:01;62.83;;;25.75;;
28844;SDS011;15976;47.938;7.758;2023-03-04T08:21:29;69.55;;;28.23;;
28844;SDS011;15976;47.938;7.758;2023-03-04T08:23:57;61.15;;;25.52;;
28844;SDS011;15976;47.938;7.758;2023-03-04T08:26:29;69.60;;;25.67;;
28844;SDS011;15976;47.938;7.758;2023-03-04T08:29:06;65.25;;;26.73;;
28844;SDS011;15976;47.938;7.758;2023-03-04T08:31:35;68.75;;;26.15;;
28844;SDS011;15976;47.938;7.758;2023-03-04T08:34:07;70.93;;;27.90;;
28844;SDS011;15976;47.938;7.758;2023-03-04T08:36:35;71.00;;;27.48;;
28844;SDS011;15976;47.938;7.758;2023-03-04T08:39:03;72.07;;;26.75;;
28844;SDS011;15976;47.938;7.758;2023-03-04T08:41:31;77.85;;;30.10;;
28844;SDS011;15976;47.938;7.758;2023-03-04T08:43:58;77.07;;;28.40;;
28844;SDS011;15976;47.938;7.758;2023-03-04T08:46:26;75.38;;;28.30;;
28844;SDS011;15976;47.938;7.758;2023-03-04T08:48:53;76.22;;;29.83;;
28844;SDS011;15976;47.938;7.758;2023-03-04T08:51:20;71.43;;;29.35;;
28844;SDS011;15976;47.938;7.758;2023-03-04T08:53:48;74.10;;;29.48;;
28844;SDS011;15976;47.938;7.758;2023-03-04T08:56:15;74.60;;;28.50;;
28844;SDS011;15976;47.938;7.758;2023-03-04T08:58:43;71.80;;;28.67;;
28844;SDS011;15976;47.938;7.758;2023-03-04T09:01:11;77.18;;;32.25;;
28844;SDS011;15976;47.938;7.758;2023-03-04T09:03:39;80.45;;;29.48;;
28844;SDS011;15976;47.938;7.758;2023-03-04T09:06:07;78.80;;;29.23;;
28844;SDS011;15976;47.938;7.758;2023-03-04T09:08:37;77.68;;;30.90;;
28844;SDS011;15976;47.938;7.758;2023-03-04T09:11:03;76.45;;;29.38;;
28844;SDS011;15976;47.938;7.758;2023-03-04T09:13:31;74.93;;;30.98;;
28844;SDS011;15976;47.938;7.758;2023-03-04T09:15:58;78.93;;;30.67;;
28844;SDS011;15976;47.938;7.758;2023-03-04T09:18:25;76.10;;;29.30;;
28844;SDS011;15976;47.938;7.758;2023-03-04T09:20:53;84.63;;;32.50;;
28844;SDS011;15976;47.938;7.758;2023-03-04T09:23:20;77.70;;;30.67;;
28844;SDS011;15976;47.938;7.758;2023-03-04T09:25:48;75.78;;;31.05;;
28844;SDS011;15976;47.938;7.758;2023-03-04T09:28:15;83.20;;;31.95;;
28844;SDS011;15976;47.938;7.758;2023-03-04T09:30:43;80.45;;;32.35;;
28844;SDS011;15976;47.938;7.758;2023-03-04T09:33:10;72.13;;;31.23;;
28844;SDS011;15976;47.938;7.758;2023-03-04T09:35:37;79.15;;;31.90;;
28844;SDS011;15976;47.938;7.758;2023-03-04T09:38:04;77.40;;;30.42;;
28844;SDS011;15976;47.938;7.758;2023-03-04T09:40:32;75.28;;;30.80;;
28844;SDS011;15976;47.938;7.758;2023-03-04T09:43:18;77.35;;;31.73;;
28844;SDS011;15976;47.938;7.758;2023-03-04T09:45:56;75.35;;;30.13;;
28844;SDS011;15976;47.938;7.758;2023-03-04T09:48:39;77.97;;;30.52;;
28844;SDS011;15976;47.938;7.758;2023-03-04T09:51:30;80.40;;;30.92;;
28844;SDS011;15976;47.938;7.758;2023-03-04T10:00:10;82.18;;;30.63;;
28844;SDS011;15976;47.938;7.758;2023-03-04T10:06:00;80.88;;;31.30;;
28844;SDS011;15976;47.938;7.758;2023-03-04T10:08:50;76.03;;;30.37;;
28844;SDS011;15976;47.938;7.758;2023-03-04T10:11:43;69.57;;;29.60;;
28844;SDS011;15976;47.938;7.758;2023-03-04T10:14:21;71.10;;;30.55;;
28844;SDS011;15976;47.938;7.758;2023-03-04T10:16:59;75.03;;;30.52;;
28844;SDS011;15976;47.938;7.758;2023-03-04T10:19:30;69.47;;;28.52;;
28844;SDS011;15976;47.938;7.758;2023-03-04T10:22:22;69.88;;;28.38;;
28844;SDS011;15976;47.938;7.758;2023-03-04T10:24:55;70.63;;;28.30;;
28844;SDS011;15976;47.938;7.758;2023-03-04T10:27:23;68.35;;;29.15;;
28844;SDS011;15976;47.938;7.758;2023-03-04T10:29:50;72.30;;;30.15;;
28844;SDS011;15976;47.938;7.758;2023-03-04T10:32:18;72.47;;;30.00;;
28844;SDS011;15976;47.938;7.758;2023-03-04T10:34:46;70.82;;;30.52;;
28844;SDS011;15976;47.938;7.758;2023-03-04T10:37:13;71.18;;;30.25;;
28844;SDS011;15976;47.938;7.758;2023-03-04T10:39:41;75.30;;;30.45;;
28844;SDS011;15976;47.938;7.758;2023-03-04T10:44:51;73.82;;;31.33;;
28844;SDS011;15976;47.938;7.758;2023-03-04T10:47:27;74.00;;;30.35;;
28844;SDS011;15976;47.938;7.758;2023-03-04T10:50:00;72.47;;;29.05;;
28844;SDS011;15976;47.938;7.758;2023-03-04T10:52:34;65.47;;;29.08;;
28844;SDS011;15976;47.938;7.758;2023-03-04T10:55:11;72.25;;;29.05;;
28844;SDS011;15976;47.938;7.758;2023-03-04T10:57:42;74.45;;;31.30;;
28844;SDS011;15976;47.938;7.758;2023-03-04T11:02:43;74.30;;;30.58;;
28844;SDS011;15976;47.938;7.758;2023-03-04T11:05:18;76.10;;;31.35;;
28844;SDS011;15976;47.938;7.758;2023-03-04T11:07:51;66.97;;;28.73;;
28844;SDS011;15976;47.938;7.758;2023-03-04T11:18:38;67.97;;;29.50;;
28844;SDS011;15976;47.938;7.758;2023-03-04T11:21:19;67.15;;;28.08;;
28844;SDS011;15976;47.938;7.758;2023-03-04T11:24:05;68.07;;;28.42;;
28844;SDS011;15976;47.938;7.758;2023-03-04T11:26:54;63.05;;;27.05;;
28844;SDS011;15976;47.938;7.758;2023-03-04T11:29:23;70.38;;;30.00;;
28844;SDS011;15976;47.938;7.758;2023-03-04T11:35:00;67.80;;;29.33;;
28844;SDS011;15976;47.938;7.758;2023-03-04T11:40:48;60.80;;;25.30;;
28844;SDS011;15976;47.938;7.758;2023-03-04T11:51:52;63.13;;;26.98;;
28844;SDS011;15976;47.938;7.758;2023-03-04T12:00:03;67.43;;;28.83;;
28844;SDS011;15976;47.938;7.758;2023-03-04T12:06:01;67.70;;;27.70;;
28844;SDS011;15976;47.938;7.758;2023-03-04T12:11:11;64.25;;;28.23;;
28844;SDS011;15976;47.938;7.758;2023-03-04T12:14:20;63.05;;;26.20;;
28844;SDS011;15976;47.938;7.758;2023-03-04T12:17:18;60.80;;;25.77;;
28844;SDS011;15976;47.938;7.758;2023-03-04T12:28:52;65.68;;;25.98;;
28844;SDS011;15976;47.938;7.758;2023-03-04T12:31:03;67.38;;;28.00;;
28844;SDS011;15976;47.938;7.758;2023-03-04T12:42:32;60.45;;;27.40;;
28844;SDS011;15976;47.938;7.758;2023-03-04T12:53:32;59.30;;;26.83;;
28844;SDS011;15976;47.938;7.758;2023-03-04T12:56:27;63.35;;;27.10;;
28844;SDS011;15976;47.938;7.758;2023-03-04T12:58:56;64.65;;;28.02;;
28844;SDS011;15976;47.938;7.758;2023-03-04T13:01:29;60.08;;;27.08;;
28844;SDS011;15976;47.938;7.758;2023-03-04T13:04:18;63.22;;;27.42;;
28844;SDS011;15976;47.938;7.758;2023-03-04T13:07:16;63.47;;;26.77;;
28844;SDS011;15976;47.938;7.758;2023-03-04T13:09:51;61.83;;;27.63;;
28844;SDS011;15976;47.938;7.758;2023-03-04T13:12:24;59.33;;;26.80;;
28844;SDS011;15976;47.938;7.758;2023-03-04T13:20:23;59.42;;;26.45;;
28844;SDS011;15976;47.938;7.758;2023-03-04T13:31:12;53.97;;;24.92;;
28844;SDS011;15976;47.938;7.758;2023-03-04T13:33:55;55.25;;;25.58;;
28844;SDS011;15976;47.938;7.758;2023-03-04T13:36:28;61.05;;;26.70;;
28844;SDS011;15976;47.938;7.758;2023-03-04T13:39:22;56.30;;;25.88;;
28844;SDS011;15976;47.938;7.758;2023-03-04T13:41:51;57.75;;;26.52;;
28844;SDS011;15976;47.938;7.758;2023-03-04T13:45:03;55.67;;;24.88;;
28844;SDS011;15976;47.938;7.758;2023-03-04T13:47:17;51.38;;;23.95;;
28844;SDS011;15976;47.938;7.758;2023-03-04T13:49:47;51.72;;;24.58;;
28844;SDS011;15976;47.938;7.758;2023-03-04T13:52:36;53.22;;;25.35;;
28844;SDS011;15976;47.938;7.758;2023-03-04T13:58:17;57.65;;;25.25;;
28844;SDS011;15976;47.938;7.758;2023-03-04T14:00:53;53.22;;;24.08;;
28844;SDS011;15976;47.938;7.758;2023-03-04T14:03:22;54.60;;;23.83;;
28844;SDS011;15976;47.938;7.758;2023-03-04T14:08:36;50.77;;;23.47;;
28844;SDS011;15976;47.938;7.758;2023-03-04T14:11:03;48.15;;;22.95;;
28844;SDS011;15976;47.938;7.758;2023-03-04T14:13:30;50.38;;;23.45;;
28844;SDS011;15976;47.938;7.758;2023-03-04T14:15:57;48.38;;;23.50;;
28844;SDS011;15976;47.938;7.758;2023-03-04T14:18:25;49.25;;;22.48;;
28844;SDS011;15976;47.938;7.758;2023-03-04T14:20:53;51.15;;;24.52;;
28844;SDS011;15976;47.938;7.758;2023-03-04T14:23:34;50.58;;;23.30;;
28844;SDS011;15976;47.938;7.758;2023-03-04T14:26:14;56.78;;;25.35;;
28844;SDS011;15976;47.938;7.758;2023-03-04T14:31:15;46.92;;;21.58;;
28844;SDS011;15976;47.938;7.758;2023-03-04T14:33:48;50.25;;;23.00;;
28844;SDS011;15976;47.938;7.758;2023-03-04T14:36:25;53.22;;;24.63;;
28844;SDS011;15976;47.938;7.758;2023-03-04T14:38:53;51.03;;;23.00;;
28844;SDS011;15976;47.938;7.758;2023-03-04T14:43:58;49.15;;;23.23;;
28844;SDS011;15976;47.938;7.758;2023-03-04T14:46:46;44.93;;;20.07;;
28844;SDS011;15976;47.938;7.758;2023-03-04T14:49:33;45.95;;;22.00;;
28844;SDS011;15976;47.938;7.758;2023-03-04T14:52:02;43.47;;;20.50;;
28844;SDS011;15976;47.938;7.758;2023-03-04T14:56:56;38.53;;;18.73;;
28844;SDS011;15976;47.938;7.758;2023-03-04T14:59:34;45.67;;;20.38;;
28844;SDS011;15976;47.938;7.758;2023-03-04T15:02:14;44.53;;;20.27;;
28844;SDS011;15976;47.938;7.758;2023-03-04T15:04:45;41.17;;;17.85;;
28844;SDS011;15976;47.938;7.758;2023-03-04T15:07:57;41.88;;;19.58;;
28844;SDS011;15976;47.938;7.758;2023-03-04T15:10:06;48.58;;;20.38;;
28844;SDS011;15976;47.938;7.758;2023-03-04T15:12:37;50.33;;;21.80;;
28844;SDS011;15976;47.938;7.758;2023-03-04T15:15:58;45.35;;;20.98;;
28844;SDS011;15976;47.938;7.758;2023-03-04T15:18:23;56.65;;;23.95;;
28844;SDS011;15976;47.938;7.758;2023-03-04T15:21:01;50.25;;;21.83;;
28844;SDS011;15976;47.938;7.758;2023-03-04T15:23:31;49.40;;;21.27;;
28844;SDS011;15976;47.938;7.758;2023-03-04T15:26:03;49.10;;;22.77;;
28844;SDS011;15976;47.938;7.758;2023-03-04T15:28:35;47.17;;;21.90;;
28844;SDS011;15976;47.938;7.758;2023-03-04T15:31:13;51.45;;;22.92;;
28844;SDS011;15976;47.938;7.758;2023-03-04T15:33:42;53.33;;;24.10;;
28844;SDS011;15976;47.938;7.758;2023-03-04T15:36:11;52.58;;;22.92;;
28844;SDS011;15976;47.938;7.758;2023-03-04T15:38:41;56.97;;;24.15;;
28844;SDS011;15976;47.938;7.758;2023-03-04T15:41:14;49.70;;;21.67;;
28844;SDS011;15976;47.938;7.758;2023-03-04T15:43:50;51.63;;;23.08;;
28844;SDS011;15976;47.938;7.758;2023-03-04T15:46:18;51.08;;;22.10;;
28844;SDS011;15976;47.938;7.758;2023-03-04T15:48:46;53.65;;;23.67;;
28844;SDS011;15976;47.938;7.758;2023-03-04T15:51:19;53.83;;;25.38;;
28844;SDS011;15976;47.938;7.758;2023-03-04T15:53:54;57.08;;;25.25;;
28844;SDS011;15976;47.938;7.758;2023-03-04T15:56:24;64.47;;;25.00;;
28844;SDS011;15976;47.938;7.758;2023-03-04T15:58:58;59.13;;;25.45;;
28844;SDS011;15976;47.938;7.758;2023-03-04T16:01:32;59.33;;;26.52;;
28844;SDS011;15976;47.938;7.758;2023-03-04T16:03:59;52.75;;;24.77;;
28844;SDS011;15976;47.938;7.758;2023-03-04T16:06:29;59.40;;;28.00;;
28844;SDS011;15976;47.938;7.758;2023-03-04T16:08:58;61.03;;;29.00;;
28844;SDS011;15976;47.938;7.758;2023-03-04T16:11:26;58.58;;;27.30;;
28844;SDS011;15976;47.938;7.758;2023-03-04T16:13:55;58.50;;;28.50;;
28844;SDS011;15976;47.938;7.758;2023-03-04T16:16:22;59.83;;;27.20;;
28844;SDS011;15976;47.938;7.758;2023-03-04T16:18:49;57.42;;;26.83;;
28844;SDS011;15976;47.938;7.758;2023-03-04T16:21:17;57.67;;;27.40;;
28844;SDS011;15976;47.938;7.758;2023-03-04T16:23:46;50.42;;;26.30;;
28844;SDS011;15976;47.938;7.758;2023-03-04T16:26:19;57.60;;;27.38;;
28844;SDS011;15976;47.938;7.758;2023-03-04T16:28:52;57.58;;;27.27;;